sensor_id;sensor_type;location;lat;lon;timestamp;P1;durP1;ratioP1;P2;durP2;ratioP2
1174;SDS011;576;48.418;10.074;2023-06-22T00:00:38;9.20;;;8.30;;
1174;SDS011;576;48.418;10.074;2023-06-22T00:03:08;10.90;;;9.80;;
1174;SDS011;576;48.418;10.074;2023-06-22T00:05:37;9.90;;;8.87;;
1174;SDS011;576;48.418;10.074;2023-06-22T00:08:05;10.50;;;9.60;;
1174;SDS011;576;48.418;10.074;2023-06-22T00:10:33;9.27;;;8.20;;
1174;SDS011;576;48.418;10.074;2023-06-22T00:13:02;11.47;;;10.00;;
1174;SDS011;576;48.418;10.074;2023-06-22T00:15:30;10.73;;;8.70;;
1174;SDS011;576;48.418;10.074;2023-06-22T00:18:00;12.67;;;9.67;;
1174;SDS011;576;48.418;10.074;2023-06-22T00:20:29;10.63;;;9.53;;
1174;SDS011;576;48.418;10.074;2023-06-22T00:22:58;9.90;;;8.90;;
1174;SDS011;576;48.418;10.074;2023-06-22T00:25:26;11.20;;;10.20;;
1174;SDS011;576;48.418;10.074;2023-06-22T00:27:55;11.43;;;9.40;;
1174;SDS011;576;48.418;10.074;2023-06-22T00:30:23;12.23;;;9.47;;
1174;SDS011;576;48.418;10.074;2023-06-22T00:32:52;9.63;;;8.73;;
1174;SDS011;576;48.418;10.074;2023-06-22T00:35:22;9.40;;;8.60;;
1174;SDS011;576;48.418;10.074;2023-06-22T00:37:55;10.87;;;9.67;;
1174;SDS011;576;48.418;10.074;2023-06-22T00:40:27;10.83;;;8.73;;
1174;SDS011;576;48.418;10.074;2023-06-22T00:42:56;12.03;;;8.73;;
1174;SDS011;576;48.418;10.074;2023-06-22T00:45:25;10.10;;;9.10;;
1174;SDS011;576;48.418;10.074;2023-06-22T00:47:57;9.70;;;8.70;;
1174;SDS011;576;48.418;10.074;2023-06-22T00:50:29;10.20;;;8.93;;
1174;SDS011;576;48.418;10.074;2023-06-22T00:53:01;10.80;;;9.40;;
1174;SDS011;576;48.418;10.074;2023-06-22T00:55:35;10.37;;;9.40;;
1174;SDS011;576;48.418;10.074;2023-06-22T00:58:05;13.50;;;9.47;;
1174;SDS011;576;48.418;10.074;2023-06-22T01:00:37;9.90;;;8.17;;
1174;SDS011;576;48.418;10.074;2023-06-22T01:03:06;10.17;;;9.17;;
1174;SDS011;576;48.418;10.074;2023-06-22T01:05:38;11.90;;;8.97;;
1174;SDS011;576;48.418;10.074;2023-06-22T01:08:13;10.80;;;9.70;;
1174;SDS011;576;48.418;10.074;2023-06-22T01:10:50;8.83;;;7.80;;
1174;SDS011;576;48.418;10.074;2023-06-22T01:13:33;10.10;;;9.07;;
1174;SDS011;576;48.418;10.074;2023-06-22T01:16:05;10.70;;;9.60;;
1174;SDS011;576;48.418;10.074;2023-06-22T01:18:39;8.80;;;8.00;;
1174;SDS011;576;48.418;10.074;2023-06-22T01:21:14;10.03;;;9.00;;
1174;SDS011;576;48.418;10.074;2023-06-22T01:23:54;9.73;;;8.60;;
1174;SDS011;576;48.418;10.074;2023-06-22T01:26:35;11.87;;;9.23;;
1174;SDS011;576;48.418;10.074;2023-06-22T01:29:08;13.70;;;10.00;;
1174;SDS011;576;48.418;10.074;2023-06-22T01:31:40;8.63;;;7.83;;
1174;SDS011;576;48.418;10.074;2023-06-22T01:34:11;13.23;;;9.03;;
1174;SDS011;576;48.418;10.074;2023-06-22T01:36:40;9.77;;;8.77;;
1174;SDS011;576;48.418;10.074;2023-06-22T01:39:10;10.67;;;8.90;;
1174;SDS011;576;48.418;10.074;2023-06-22T01:41:40;9.60;;;7.80;;
1174;SDS011;576;48.418;10.074;2023-06-22T01:44:11;10.20;;;8.10;;
1174;SDS011;576;48.418;10.074;2023-06-22T01:46:41;9.07;;;8.20;;
1174;SDS011;576;48.418;10.074;2023-06-22T01:49:09;9.63;;;8.63;;
1174;SDS011;576;48.418;10.074;2023-06-22T01:51:37;10.90;;;8.70;;
1174;SDS011;576;48.418;10.074;2023-06-22T01:54:06;11.53;;;9.13;;
1174;SDS011;576;48.418;10.074;2023-06-22T01:56:35;16.10;;;9.00;;
1174;SDS011;576;48.418;10.074;2023-06-22T01:59:05;12.77;;;7.93;;
1174;SDS011;576;48.418;10.074;2023-06-22T02:01:42;10.00;;;7.83;;
1174;SDS011;576;48.418;10.074;2023-06-22T02:04:13;14.93;;;7.97;;
1174;SDS011;576;48.418;10.074;2023-06-22T02:06:47;8.40;;;7.60;;
1174;SDS011;576;48.418;10.074;2023-06-22T02:09:22;9.67;;;8.47;;
1174;SDS011;576;48.418;10.074;2023-06-22T02:11:53;9.53;;;8.53;;
1174;SDS011;576;48.418;10.074;2023-06-22T02:14:26;9.73;;;8.70;;
1174;SDS011;576;48.418;10.074;2023-06-22T02:16:54;9.37;;;8.17;;
1174;SDS011;576;48.418;10.074;2023-06-22T02:19:26;10.37;;;7.93;;
1174;SDS011;576;48.418;10.074;2023-06-22T02:21:59;10.10;;;8.20;;
1174;SDS011;576;48.418;10.074;2023-06-22T02:24:27;13.07;;;8.23;;
1174;SDS011;576;48.418;10.074;2023-06-22T02:26:58;10.73;;;8.80;;
1174;SDS011;576;48.418;10.074;2023-06-22T02:29:28;11.50;;;7.93;;
1174;SDS011;576;48.418;10.074;2023-06-22T02:31:56;8.40;;;7.60;;
1174;SDS011;576;48.418;10.074;2023-06-22T02:34:24;8.63;;;7.83;;
1174;SDS011;576;48.418;10.074;2023-06-22T02:36:53;9.97;;;8.03;;
1174;SDS011;576;48.418;10.074;2023-06-22T02:39:21;9.20;;;8.00;;
1174;SDS011;576;48.418;10.074;2023-06-22T02:41:51;10.00;;;9.00;;
1174;SDS011;576;48.418;10.074;2023-06-22T02:44:21;8.50;;;7.50;;
1174;SDS011;576;48.418;10.074;2023-06-22T02:46:51;9.73;;;7.90;;
1174;SDS011;576;48.418;10.074;2023-06-22T02:49:20;9.63;;;8.40;;
1174;SDS011;576;48.418;10.074;2023-06-22T02:51:48;9.17;;;7.27;;
1174;SDS011;576;48.418;10.074;2023-06-22T02:54:19;13.63;;;8.83;;
1174;SDS011;576;48.418;10.074;2023-06-22T02:56:50;9.23;;;8.33;;
1174;SDS011;576;48.418;10.074;2023-06-22T02:59:19;9.53;;;8.53;;
1174;SDS011;576;48.418;10.074;2023-06-22T03:01:53;8.67;;;7.77;;
1174;SDS011;576;48.418;10.074;2023-06-22T03:04:26;12.30;;;7.70;;
1174;SDS011;576;48.418;10.074;2023-06-22T03:06:54;13.70;;;8.57;;
1174;SDS011;576;48.418;10.074;2023-06-22T03:09:22;11.50;;;7.57;;
1174;SDS011;576;48.418;10.074;2023-06-22T03:11:51;10.70;;;8.87;;
1174;SDS011;576;48.418;10.074;2023-06-22T03:14:20;8.47;;;7.50;;
1174;SDS011;576;48.418;10.074;2023-06-22T03:16:49;10.40;;;7.33;;
1174;SDS011;576;48.418;10.074;2023-06-22T03:19:19;7.50;;;6.70;;
1174;SDS011;576;48.418;10.074;2023-06-22T03:21:48;7.80;;;7.00;;
1174;SDS011;576;48.418;10.074;2023-06-22T03:24:16;9.27;;;7.70;;
1174;SDS011;576;48.418;10.074;2023-06-22T03:26:44;10.40;;;7.63;;
1174;SDS011;576;48.418;10.074;2023-06-22T03:29:13;12.00;;;9.10;;
1174;SDS011;576;48.418;10.074;2023-06-22T03:31:44;8.67;;;7.97;;
1174;SDS011;576;48.418;10.074;2023-06-22T03:34:13;9.20;;;7.73;;
1174;SDS011;576;48.418;10.074;2023-06-22T03:36:43;8.70;;;8.00;;
1174;SDS011;576;48.418;10.074;2023-06-22T03:39:12;8.30;;;7.17;;
1174;SDS011;576;48.418;10.074;2023-06-22T03:41:40;9.10;;;7.97;;
1174;SDS011;576;48.418;10.074;2023-06-22T03:44:09;9.80;;;7.50;;
1174;SDS011;576;48.418;10.074;2023-06-22T03:46:39;9.77;;;8.70;;
1174;SDS011;576;48.418;10.074;2023-06-22T03:49:07;9.67;;;8.10;;
1174;SDS011;576;48.418;10.074;2023-06-22T03:51:35;8.63;;;7.90;;
1174;SDS011;576;48.418;10.074;2023-06-22T03:54:05;10.07;;;7.30;;
1174;SDS011;576;48.418;10.074;2023-06-22T03:56:33;8.20;;;7.50;;
1174;SDS011;576;48.418;10.074;2023-06-22T03:59:01;8.10;;;7.30;;
1174;SDS011;576;48.418;10.074;2023-06-22T04:01:29;8.00;;;7.20;;
1174;SDS011;576;48.418;10.074;2023-06-22T04:03:58;10.50;;;7.50;;
1174;SDS011;576;48.418;10.074;2023-06-22T04:06:26;13.63;;;8.47;;
1174;SDS011;576;48.418;10.074;2023-06-22T04:08:54;8.20;;;7.37;;
1174;SDS011;576;48.418;10.074;2023-06-22T04:11:24;8.20;;;7.17;;
1174;SDS011;576;48.418;10.074;2023-06-22T04:13:52;8.83;;;7.57;;
1174;SDS011;576;48.418;10.074;2023-06-22T04:16:20;7.70;;;7.00;;
1174;SDS011;576;48.418;10.074;2023-06-22T04:18:48;10.27;;;8.70;;
1174;SDS011;576;48.418;10.074;2023-06-22T04:21:17;8.97;;;7.83;;
1174;SDS011;576;48.418;10.074;2023-06-22T04:23:47;9.40;;;7.93;;
1174;SDS011;576;48.418;10.074;2023-06-22T04:26:15;9.57;;;8.60;;
1174;SDS011;576;48.418;10.074;2023-06-22T04:28:45;12.33;;;8.70;;
1174;SDS011;576;48.418;10.074;2023-06-22T04:31:18;8.70;;;7.77;;
1174;SDS011;576;48.418;10.074;2023-06-22T04:33:46;9.03;;;8.07;;
1174;SDS011;576;48.418;10.074;2023-06-22T04:36:17;8.57;;;7.77;;
1174;SDS011;576;48.418;10.074;2023-06-22T04:38:50;11.30;;;7.63;;
1174;SDS011;576;48.418;10.074;2023-06-22T04:41:19;9.90;;;8.07;;
1174;SDS011;576;48.418;10.074;2023-06-22T04:43:52;9.17;;;7.63;;
1174;SDS011;576;48.418;10.074;2023-06-22T04:46:20;9.23;;;7.40;;
1174;SDS011;576;48.418;10.074;2023-06-22T04:48:49;7.80;;;6.90;;
1174;SDS011;576;48.418;10.074;2023-06-22T04:51:17;11.10;;;7.50;;
1174;SDS011;576;48.418;10.074;2023-06-22T04:53:48;8.40;;;7.30;;
1174;SDS011;576;48.418;10.074;2023-06-22T04:56:16;7.53;;;6.70;;
1174;SDS011;576;48.418;10.074;2023-06-22T04:58:44;10.23;;;7.90;;
1174;SDS011;576;48.418;10.074;2023-06-22T05:01:14;12.70;;;8.27;;
1174;SDS011;576;48.418;10.074;2023-06-22T05:03:42;7.40;;;6.77;;
1174;SDS011;576;48.418;10.074;2023-06-22T05:06:11;12.73;;;7.33;;
1174;SDS011;576;48.418;10.074;2023-06-22T05:08:40;7.00;;;6.27;;
1174;SDS011;576;48.418;10.074;2023-06-22T05:11:08;7.83;;;6.47;;
1174;SDS011;576;48.418;10.074;2023-06-22T05:13:37;7.60;;;6.57;;
1174;SDS011;576;48.418;10.074;2023-06-22T05:16:05;11.10;;;8.23;;
1174;SDS011;576;48.418;10.074;2023-06-22T05:18:34;8.27;;;6.67;;
1174;SDS011;576;48.418;10.074;2023-06-22T05:21:03;8.50;;;7.67;;
1174;SDS011;576;48.418;10.074;2023-06-22T05:23:32;7.60;;;6.90;;
1174;SDS011;576;48.418;10.074;2023-06-22T05:26:00;8.97;;;6.90;;
1174;SDS011;576;48.418;10.074;2023-06-22T05:28:28;9.43;;;7.10;;
1174;SDS011;576;48.418;10.074;2023-06-22T05:30:56;7.60;;;6.90;;
1174;SDS011;576;48.418;10.074;2023-06-22T05:33:24;7.73;;;6.80;;
1174;SDS011;576;48.418;10.074;2023-06-22T05:35:54;7.80;;;7.03;;
1174;SDS011;576;48.418;10.074;2023-06-22T05:38:22;9.97;;;7.73;;
1174;SDS011;576;48.418;10.074;2023-06-22T05:40:50;9.57;;;6.93;;
1174;SDS011;576;48.418;10.074;2023-06-22T05:43:18;8.77;;;7.10;;
1174;SDS011;576;48.418;10.074;2023-06-22T05:45:47;7.10;;;5.33;;
1174;SDS011;576;48.418;10.074;2023-06-22T05:48:15;10.10;;;5.97;;
1174;SDS011;576;48.418;10.074;2023-06-22T05:50:43;8.40;;;5.97;;
1174;SDS011;576;48.418;10.074;2023-06-22T05:53:13;7.27;;;5.27;;
1174;SDS011;576;48.418;10.074;2023-06-22T05:55:41;9.03;;;5.97;;
1174;SDS011;576;48.418;10.074;2023-06-22T05:58:09;7.20;;;6.60;;
1174;SDS011;576;48.418;10.074;2023-06-22T06:00:39;6.80;;;6.00;;
1174;SDS011;576;48.418;10.074;2023-06-22T06:03:08;8.47;;;6.50;;
1174;SDS011;576;48.418;10.074;2023-06-22T06:05:40;7.13;;;6.30;;
1174;SDS011;576;48.418;10.074;2023-06-22T06:08:09;6.63;;;5.87;;
1174;SDS011;576;48.418;10.074;2023-06-22T06:10:39;6.63;;;5.97;;
1174;SDS011;576;48.418;10.074;2023-06-22T06:13:08;6.40;;;5.80;;
1174;SDS011;576;48.418;10.074;2023-06-22T06:15:36;6.47;;;5.90;;
1174;SDS011;576;48.418;10.074;2023-06-22T06:18:04;6.63;;;6.00;;
1174;SDS011;576;48.418;10.074;2023-06-22T06:20:33;6.83;;;5.60;;
1174;SDS011;576;48.418;10.074;2023-06-22T06:23:02;8.40;;;4.97;;
1174;SDS011;576;48.418;10.074;2023-06-22T06:25:30;6.17;;;5.57;;
1174;SDS011;576;48.418;10.074;2023-06-22T06:27:59;5.83;;;5.00;;
1174;SDS011;576;48.418;10.074;2023-06-22T06:30:28;8.30;;;5.77;;
1174;SDS011;576;48.418;10.074;2023-06-22T06:32:56;6.17;;;5.67;;
1174;SDS011;576;48.418;10.074;2023-06-22T06:35:25;5.90;;;5.37;;
1174;SDS011;576;48.418;10.074;2023-06-22T06:37:54;6.50;;;5.40;;
1174;SDS011;576;48.418;10.074;2023-06-22T06:40:23;5.10;;;4.60;;
1174;SDS011;576;48.418;10.074;2023-06-22T06:42:51;7.17;;;5.47;;
1174;SDS011;576;48.418;10.074;2023-06-22T06:45:22;5.57;;;5.17;;
1174;SDS011;576;48.418;10.074;2023-06-22T06:47:51;5.97;;;5.57;;
1174;SDS011;576;48.418;10.074;2023-06-22T06:50:20;5.80;;;5.30;;
1174;SDS011;576;48.418;10.074;2023-06-22T06:52:48;6.27;;;5.67;;
1174;SDS011;576;48.418;10.074;2023-06-22T06:55:17;5.73;;;5.23;;
1174;SDS011;576;48.418;10.074;2023-06-22T06:57:46;6.67;;;5.93;;
1174;SDS011;576;48.418;10.074;2023-06-22T07:00:16;5.77;;;5.07;;
1174;SDS011;576;48.418;10.074;2023-06-22T07:02:47;5.57;;;5.07;;
1174;SDS011;576;48.418;10.074;2023-06-22T07:05:15;6.40;;;5.30;;
1174;SDS011;576;48.418;10.074;2023-06-22T07:07:43;5.00;;;4.50;;
1174;SDS011;576;48.418;10.074;2023-06-22T07:10:12;5.13;;;4.63;;
1174;SDS011;576;48.418;10.074;2023-06-22T07:12:41;6.10;;;5.50;;
1174;SDS011;576;48.418;10.074;2023-06-22T07:15:10;7.27;;;5.07;;
1174;SDS011;576;48.418;10.074;2023-06-22T07:17:39;6.33;;;5.43;;
1174;SDS011;576;48.418;10.074;2023-06-22T07:20:10;6.17;;;5.57;;
1174;SDS011;576;48.418;10.074;2023-06-22T07:22:39;9.27;;;5.40;;
1174;SDS011;576;48.418;10.074;2023-06-22T07:25:08;6.93;;;5.23;;
1174;SDS011;576;48.418;10.074;2023-06-22T07:27:44;5.43;;;4.87;;
1174;SDS011;576;48.418;10.074;2023-06-22T07:30:14;5.63;;;5.13;;
1174;SDS011;576;48.418;10.074;2023-06-22T07:32:43;6.03;;;5.37;;
1174;SDS011;576;48.418;10.074;2023-06-22T07:35:12;5.30;;;4.80;;
1174;SDS011;576;48.418;10.074;2023-06-22T07:37:42;5.90;;;5.40;;
1174;SDS011;576;48.418;10.074;2023-06-22T07:40:11;4.83;;;4.43;;
1174;SDS011;576;48.418;10.074;2023-06-22T07:42:39;6.60;;;5.90;;
1174;SDS011;576;48.418;10.074;2023-06-22T07:45:08;5.43;;;4.93;;
1174;SDS011;576;48.418;10.074;2023-06-22T07:47:36;5.57;;;5.17;;
1174;SDS011;576;48.418;10.074;2023-06-22T07:50:05;6.17;;;5.10;;
1174;SDS011;576;48.418;10.074;2023-06-22T07:52:38;6.20;;;5.70;;
1174;SDS011;576;48.418;10.074;2023-06-22T07:55:06;5.80;;;5.30;;
1174;SDS011;576;48.418;10.074;2023-06-22T07:57:35;7.03;;;6.27;;
1174;SDS011;576;48.418;10.074;2023-06-22T08:00:04;5.60;;;4.70;;
1174;SDS011;576;48.418;10.074;2023-06-22T08:02:39;5.90;;;5.50;;
1174;SDS011;576;48.418;10.074;2023-06-22T08:05:08;5.40;;;4.90;;
1174;SDS011;576;48.418;10.074;2023-06-22T08:07:42;6.83;;;6.27;;
1174;SDS011;576;48.418;10.074;2023-06-22T08:10:14;5.50;;;5.10;;
1174;SDS011;576;48.418;10.074;2023-06-22T08:12:42;7.40;;;5.50;;
1174;SDS011;576;48.418;10.074;2023-06-22T08:15:11;5.20;;;4.70;;
1174;SDS011;576;48.418;10.074;2023-06-22T08:17:39;5.87;;;5.37;;
1174;SDS011;576;48.418;10.074;2023-06-22T08:20:08;6.17;;;4.93;;
1174;SDS011;576;48.418;10.074;2023-06-22T08:22:38;5.30;;;4.90;;
1174;SDS011;576;48.418;10.074;2023-06-22T08:25:08;5.63;;;5.13;;
1174;SDS011;576;48.418;10.074;2023-06-22T08:27:37;6.20;;;5.60;;
1174;SDS011;576;48.418;10.074;2023-06-22T08:30:06;6.30;;;5.50;;
1174;SDS011;576;48.418;10.074;2023-06-22T08:32:37;7.07;;;6.30;;
1174;SDS011;576;48.418;10.074;2023-06-22T08:35:06;6.27;;;5.03;;
1174;SDS011;576;48.418;10.074;2023-06-22T08:37:35;6.03;;;5.53;;
1174;SDS011;576;48.418;10.074;2023-06-22T08:40:06;6.60;;;6.00;;
1174;SDS011;576;48.418;10.074;2023-06-22T08:42:37;7.63;;;6.33;;
1174;SDS011;576;48.418;10.074;2023-06-22T08:45:08;6.80;;;6.10;;
1174;SDS011;576;48.418;10.074;2023-06-22T08:47:37;5.53;;;5.03;;
1174;SDS011;576;48.418;10.074;2023-06-22T08:50:06;6.30;;;5.70;;
1174;SDS011;576;48.418;10.074;2023-06-22T08:52:36;5.97;;;5.37;;
1174;SDS011;576;48.418;10.074;2023-06-22T08:55:05;6.17;;;5.00;;
1174;SDS011;576;48.418;10.074;2023-06-22T08:57:35;5.67;;;5.17;;
1174;SDS011;576;48.418;10.074;2023-06-22T09:00:06;6.93;;;6.33;;
1174;SDS011;576;48.418;10.074;2023-06-22T09:02:43;6.20;;;5.60;;
1174;SDS011;576;48.418;10.074;2023-06-22T09:05:11;5.90;;;5.30;;
1174;SDS011;576;48.418;10.074;2023-06-22T09:07:40;7.07;;;6.47;;
1174;SDS011;576;48.418;10.074;2023-06-22T09:10:08;6.63;;;6.13;;
1174;SDS011;576;48.418;10.074;2023-06-22T09:12:38;6.30;;;5.67;;
1174;SDS011;576;48.418;10.074;2023-06-22T09:15:07;7.43;;;6.60;;
1174;SDS011;576;48.418;10.074;2023-06-22T09:17:42;6.00;;;5.50;;
1174;SDS011;576;48.418;10.074;2023-06-22T09:20:13;11.30;;;7.00;;
1174;SDS011;576;48.418;10.074;2023-06-22T09:22:42;5.80;;;5.33;;
1174;SDS011;576;48.418;10.074;2023-06-22T09:25:10;6.70;;;6.10;;
1174;SDS011;576;48.418;10.074;2023-06-22T09:27:40;7.40;;;6.60;;
1174;SDS011;576;48.418;10.074;2023-06-22T09:30:08;6.90;;;6.27;;
1174;SDS011;576;48.418;10.074;2023-06-22T09:32:37;7.30;;;6.70;;
1174;SDS011;576;48.418;10.074;2023-06-22T09:35:06;8.63;;;6.47;;
1174;SDS011;576;48.418;10.074;2023-06-22T09:37:38;7.20;;;6.10;;
1174;SDS011;576;48.418;10.074;2023-06-22T09:40:07;8.90;;;8.00;;
1174;SDS011;576;48.418;10.074;2023-06-22T09:42:37;8.17;;;6.60;;
1174;SDS011;576;48.418;10.074;2023-06-22T09:45:09;10.10;;;8.67;;
1174;SDS011;576;48.418;10.074;2023-06-22T09:47:37;7.70;;;6.90;;
1174;SDS011;576;48.418;10.074;2023-06-22T09:50:07;9.40;;;7.90;;
1174;SDS011;576;48.418;10.074;2023-06-22T09:52:36;10.20;;;9.00;;
1174;SDS011;576;48.418;10.074;2023-06-22T09:55:07;9.20;;;8.30;;
1174;SDS011;576;48.418;10.074;2023-06-22T09:57:36;9.93;;;8.87;;
1174;SDS011;576;48.418;10.074;2023-06-22T10:00:06;10.13;;;7.40;;
1174;SDS011;576;48.418;10.074;2023-06-22T10:02:37;8.23;;;7.47;;
1174;SDS011;576;48.418;10.074;2023-06-22T10:05:06;9.20;;;8.30;;
1174;SDS011;576;48.418;10.074;2023-06-22T10:07:35;9.57;;;8.57;;
1174;SDS011;576;48.418;10.074;2023-06-22T10:10:07;8.30;;;7.50;;
1174;SDS011;576;48.418;10.074;2023-06-22T10:12:35;8.00;;;7.20;;
1174;SDS011;576;48.418;10.074;2023-06-22T10:15:04;9.50;;;7.80;;
1174;SDS011;576;48.418;10.074;2023-06-22T10:17:34;10.90;;;8.13;;
1174;SDS011;576;48.418;10.074;2023-06-22T10:20:03;9.10;;;7.80;;
1174;SDS011;576;48.418;10.074;2023-06-22T10:22:38;7.53;;;6.83;;
1174;SDS011;576;48.418;10.074;2023-06-22T10:25:07;8.43;;;6.77;;
1174;SDS011;576;48.418;10.074;2023-06-22T10:27:36;8.00;;;6.87;;
1174;SDS011;576;48.418;10.074;2023-06-22T10:30:08;6.67;;;6.07;;
1174;SDS011;576;48.418;10.074;2023-06-22T10:32:39;5.57;;;5.07;;
1174;SDS011;576;48.418;10.074;2023-06-22T10:35:09;6.57;;;5.97;;
1174;SDS011;576;48.418;10.074;2023-06-22T10:37:40;8.03;;;6.23;;
1174;SDS011;576;48.418;10.074;2023-06-22T10:40:10;7.03;;;6.43;;
1174;SDS011;576;48.418;10.074;2023-06-22T10:42:39;7.20;;;6.13;;
1174;SDS011;576;48.418;10.074;2023-06-22T10:45:09;7.27;;;6.60;;
1174;SDS011;576;48.418;10.074;2023-06-22T10:47:38;7.10;;;6.40;;
1174;SDS011;576;48.418;10.074;2023-06-22T10:50:09;8.80;;;7.37;;
1174;SDS011;576;48.418;10.074;2023-06-22T10:52:37;7.70;;;5.90;;
1174;SDS011;576;48.418;10.074;2023-06-22T10:55:06;14.37;;;8.13;;
1174;SDS011;576;48.418;10.074;2023-06-22T10:57:35;11.00;;;7.30;;
1174;SDS011;576;48.418;10.074;2023-06-22T11:00:05;7.47;;;6.77;;
1174;SDS011;576;48.418;10.074;2023-06-22T11:02:39;9.60;;;8.33;;
1174;SDS011;576;48.418;10.074;2023-06-22T11:05:07;9.40;;;7.60;;
1174;SDS011;576;48.418;10.074;2023-06-22T11:07:36;8.63;;;7.23;;
1174;SDS011;576;48.418;10.074;2023-06-22T11:10:10;7.00;;;6.30;;
1174;SDS011;576;48.418;10.074;2023-06-22T11:12:40;9.33;;;7.80;;
1174;SDS011;576;48.418;10.074;2023-06-22T11:15:09;11.33;;;8.80;;
1174;SDS011;576;48.418;10.074;2023-06-22T11:17:38;9.57;;;7.30;;
1174;SDS011;576;48.418;10.074;2023-06-22T11:20:07;9.83;;;6.90;;
1174;SDS011;576;48.418;10.074;2023-06-22T11:22:52;12.47;;;7.50;;
1174;SDS011;576;48.418;10.074;2023-06-22T11:25:20;7.03;;;6.37;;
1174;SDS011;576;48.418;10.074;2023-06-22T11:27:48;11.90;;;7.77;;
1174;SDS011;576;48.418;10.074;2023-06-22T11:30:17;8.40;;;7.60;;
1174;SDS011;576;48.418;10.074;2023-06-22T11:32:47;10.60;;;7.40;;
1174;SDS011;576;48.418;10.074;2023-06-22T11:35:16;14.13;;;7.33;;
1174;SDS011;576;48.418;10.074;2023-06-22T11:37:44;8.43;;;7.33;;
1174;SDS011;576;48.418;10.074;2023-06-22T11:40:13;9.30;;;6.70;;
1174;SDS011;576;48.418;10.074;2023-06-22T11:42:41;7.73;;;6.87;;
1174;SDS011;576;48.418;10.074;2023-06-22T11:45:09;9.53;;;7.40;;
1174;SDS011;576;48.418;10.074;2023-06-22T11:47:38;10.60;;;7.10;;
1174;SDS011;576;48.418;10.074;2023-06-22T11:50:08;8.20;;;7.40;;
1174;SDS011;576;48.418;10.074;2023-06-22T11:52:36;10.73;;;7.87;;
1174;SDS011;576;48.418;10.074;2023-06-22T11:55:05;12.20;;;7.40;;
1174;SDS011;576;48.418;10.074;2023-06-22T11:57:35;9.80;;;6.57;;
1174;SDS011;576;48.418;10.074;2023-06-22T12:00:04;8.10;;;7.27;;
1174;SDS011;576;48.418;10.074;2023-06-22T12:02:42;8.00;;;7.23;;
1174;SDS011;576;48.418;10.074;2023-06-22T12:05:13;10.50;;;6.90;;
1174;SDS011;576;48.418;10.074;2023-06-22T12:07:41;8.43;;;7.53;;
1174;SDS011;576;48.418;10.074;2023-06-22T12:10:09;10.13;;;6.63;;
1174;SDS011;576;48.418;10.074;2023-06-22T12:12:38;7.83;;;7.13;;
1174;SDS011;576;48.418;10.074;2023-06-22T12:15:06;10.07;;;7.53;;
1174;SDS011;576;48.418;10.074;2023-06-22T12:17:35;8.07;;;7.37;;
1174;SDS011;576;48.418;10.074;2023-06-22T12:20:04;10.50;;;6.90;;
1174;SDS011;576;48.418;10.074;2023-06-22T12:22:35;7.70;;;7.00;;
1174;SDS011;576;48.418;10.074;2023-06-22T12:25:05;7.77;;;6.90;;
1174;SDS011;576;48.418;10.074;2023-06-22T12:27:34;7.03;;;6.33;;
1174;SDS011;576;48.418;10.074;2023-06-22T12:30:02;8.40;;;6.73;;
1174;SDS011;576;48.418;10.074;2023-06-22T12:32:31;12.03;;;7.47;;
1174;SDS011;576;48.418;10.074;2023-06-22T12:35:01;6.73;;;6.20;;
1174;SDS011;576;48.418;10.074;2023-06-22T12:37:30;8.70;;;7.80;;
1174;SDS011;576;48.418;10.074;2023-06-22T12:40:01;9.53;;;7.10;;
1174;SDS011;576;48.418;10.074;2023-06-22T12:42:31;6.73;;;6.00;;
1174;SDS011;576;48.418;10.074;2023-06-22T12:44:59;10.63;;;8.40;;
1174;SDS011;576;48.418;10.074;2023-06-22T12:47:27;11.77;;;7.87;;
1174;SDS011;576;48.418;10.074;2023-06-22T12:49:55;9.70;;;7.17;;
1174;SDS011;576;48.418;10.074;2023-06-22T12:52:24;10.47;;;8.00;;
1174;SDS011;576;48.418;10.074;2023-06-22T12:54:52;7.57;;;6.60;;
1174;SDS011;576;48.418;10.074;2023-06-22T12:57:23;8.37;;;7.17;;
1174;SDS011;576;48.418;10.074;2023-06-22T12:59:51;17.03;;;7.50;;
1174;SDS011;576;48.418;10.074;2023-06-22T13:02:20;7.80;;;7.10;;
1174;SDS011;576;48.418;10.074;2023-06-22T13:04:48;9.43;;;7.93;;
1174;SDS011;576;48.418;10.074;2023-06-22T13:07:16;7.23;;;6.53;;
1174;SDS011;576;48.418;10.074;2023-06-22T13:09:49;8.30;;;7.50;;
1174;SDS011;576;48.418;10.074;2023-06-22T13:12:19;9.53;;;7.40;;
1174;SDS011;576;48.418;10.074;2023-06-22T13:14:49;7.20;;;6.47;;
1174;SDS011;576;48.418;10.074;2023-06-22T13:17:17;7.90;;;7.20;;
1174;SDS011;576;48.418;10.074;2023-06-22T13:19:46;10.33;;;8.23;;
1174;SDS011;576;48.418;10.074;2023-06-22T13:22:26;7.80;;;6.57;;
1174;SDS011;576;48.418;10.074;2023-06-22T13:24:55;13.37;;;7.10;;
1174;SDS011;576;48.418;10.074;2023-06-22T13:27:24;12.13;;;8.17;;
1174;SDS011;576;48.418;10.074;2023-06-22T13:29:53;16.53;;;7.70;;
1174;SDS011;576;48.418;10.074;2023-06-22T13:32:22;9.87;;;8.07;;
1174;SDS011;576;48.418;10.074;2023-06-22T13:34:50;8.43;;;7.37;;
1174;SDS011;576;48.418;10.074;2023-06-22T13:37:19;9.33;;;8.43;;
1174;SDS011;576;48.418;10.074;2023-06-22T13:39:47;8.23;;;7.00;;
1174;SDS011;576;48.418;10.074;2023-06-22T13:42:16;8.00;;;7.13;;
1174;SDS011;576;48.418;10.074;2023-06-22T13:44:44;7.77;;;7.03;;
1174;SDS011;576;48.418;10.074;2023-06-22T13:47:13;8.67;;;7.70;;
1174;SDS011;576;48.418;10.074;2023-06-22T13:49:42;8.93;;;7.00;;
1174;SDS011;576;48.418;10.074;2023-06-22T13:52:10;11.40;;;8.70;;
1174;SDS011;576;48.418;10.074;2023-06-22T13:54:39;8.87;;;7.23;;
1174;SDS011;576;48.418;10.074;2023-06-22T13:57:07;8.57;;;7.73;;
1174;SDS011;576;48.418;10.074;2023-06-22T13:59:35;8.20;;;7.13;;
1174;SDS011;576;48.418;10.074;2023-06-22T14:02:04;17.13;;;7.80;;
1174;SDS011;576;48.418;10.074;2023-06-22T14:04:34;11.33;;;7.07;;
1174;SDS011;576;48.418;10.074;2023-06-22T14:07:02;9.40;;;7.17;;
1174;SDS011;576;48.418;10.074;2023-06-22T14:09:30;8.43;;;7.20;;
1174;SDS011;576;48.418;10.074;2023-06-22T14:12:02;7.80;;;6.30;;
1174;SDS011;576;48.418;10.074;2023-06-22T14:14:32;10.07;;;8.13;;
1174;SDS011;576;48.418;10.074;2023-06-22T14:17:01;9.10;;;7.23;;
1174;SDS011;576;48.418;10.074;2023-06-22T14:19:29;9.50;;;6.77;;
1174;SDS011;576;48.418;10.074;2023-06-22T14:21:59;8.90;;;6.67;;
1174;SDS011;576;48.418;10.074;2023-06-22T14:24:27;9.30;;;6.57;;
1174;SDS011;576;48.418;10.074;2023-06-22T14:27:15;7.97;;;6.53;;
1174;SDS011;576;48.418;10.074;2023-06-22T14:29:43;8.73;;;6.77;;
1174;SDS011;576;48.418;10.074;2023-06-22T14:32:11;7.90;;;6.90;;
1174;SDS011;576;48.418;10.074;2023-06-22T14:34:40;8.43;;;7.50;;
1174;SDS011;576;48.418;10.074;2023-06-22T14:37:10;8.37;;;6.33;;
1174;SDS011;576;48.418;10.074;2023-06-22T14:39:39;7.70;;;6.90;;
1174;SDS011;576;48.418;10.074;2023-06-22T14:42:08;9.33;;;7.53;;
1174;SDS011;576;48.418;10.074;2023-06-22T14:44:36;8.43;;;6.90;;
1174;SDS011;576;48.418;10.074;2023-06-22T14:47:05;8.90;;;7.10;;
1174;SDS011;576;48.418;10.074;2023-06-22T14:49:33;8.17;;;7.33;;
1174;SDS011;576;48.418;10.074;2023-06-22T14:52:02;9.73;;;6.80;;
1174;SDS011;576;48.418;10.074;2023-06-22T14:54:32;10.80;;;7.73;;
1174;SDS011;576;48.418;10.074;2023-06-22T14:57:01;9.63;;;7.03;;
1174;SDS011;576;48.418;10.074;2023-06-22T14:59:29;10.53;;;8.33;;
1174;SDS011;576;48.418;10.074;2023-06-22T15:01:57;13.00;;;7.37;;
1174;SDS011;576;48.418;10.074;2023-06-22T15:04:25;8.07;;;7.10;;
1174;SDS011;576;48.418;10.074;2023-06-22T15:06:58;9.33;;;7.03;;
1174;SDS011;576;48.418;10.074;2023-06-22T15:09:26;10.43;;;7.47;;
1174;SDS011;576;48.418;10.074;2023-06-22T15:11:55;11.93;;;7.80;;
1174;SDS011;576;48.418;10.074;2023-06-22T15:14:24;8.97;;;7.00;;
1174;SDS011;576;48.418;10.074;2023-06-22T15:16:52;10.90;;;7.53;;
1174;SDS011;576;48.418;10.074;2023-06-22T15:19:20;8.50;;;7.67;;
1174;SDS011;576;48.418;10.074;2023-06-22T15:21:49;9.77;;;7.37;;
1174;SDS011;576;48.418;10.074;2023-06-22T15:24:17;16.90;;;8.00;;
1174;SDS011;576;48.418;10.074;2023-06-22T15:26:45;13.13;;;9.23;;